createdAt,value
2023-03-08T00:01:30.258Z,1.70
2023-03-08T00:04:01.054Z,1.70
2023-03-08T00:06:30.194Z,1.33
2023-03-08T00:08:58.274Z,2.00
2023-03-08T00:11:26.736Z,2.80
2023-03-08T00:13:56.119Z,1.40
2023-03-08T00:16:24.361Z,1.40
2023-03-08T00:18:52.018Z,1.33
2023-03-08T00:21:20.190Z,1.27
2023-03-08T00:23:48.180Z,1.60
2023-03-08T00:26:15.993Z,1.80
2023-03-08T00:28:43.796Z,1.50
2023-03-08T00:31:14.620Z,1.40
2023-03-08T00:33:42.542Z,1.60
2023-03-08T00:36:15.260Z,1.27
2023-03-08T00:38:43.775Z,1.40
2023-03-08T00:41:11.695Z,1.40
2023-03-08T00:43:39.354Z,1.10
2023-03-08T00:46:07.217Z,1.53
2023-03-08T00:48:36.131Z,1.40
2023-03-08T00:51:03.807Z,1.60
2023-03-08T00:53:31.676Z,1.30
2023-03-08T00:56:00.823Z,1.43
2023-03-08T00:58:30.559Z,1.57
2023-03-08T01:00:58.828Z,1.53
2023-03-08T01:03:26.914Z,1.50
2023-03-08T01:05:59.001Z,1.70
2023-03-08T01:08:27.564Z,2.27
2023-03-08T01:10:58.045Z,1.80
2023-03-08T01:13:27.138Z,2.00
2023-03-08T01:15:54.829Z,1.70
2023-03-08T01:18:22.694Z,1.50
2023-03-08T01:21:00.486Z,1.77
2023-03-08T01:23:36.755Z,1.67
2023-03-08T01:26:06.937Z,2.00
2023-03-08T01:28:37.312Z,1.90
2023-03-08T01:31:06.415Z,1.80
2023-03-08T01:33:34.089Z,1.50
2023-03-08T01:36:05.788Z,1.50
2023-03-08T01:38:34.017Z,1.90
2023-03-08T01:41:03.433Z,1.67
2023-03-08T01:43:32.551Z,1.80
2023-03-08T01:46:11.710Z,1.73
2023-03-08T01:48:43.632Z,1.77
2023-03-08T01:51:16.028Z,1.90
2023-03-08T01:53:44.778Z,6.20
2023-03-08T01:56:16.584Z,2.60
2023-03-08T01:58:47.863Z,2.40
2023-03-08T02:01:16.146Z,1.80
2023-03-08T02:03:43.704Z,2.20
2023-03-08T02:06:14.504Z,2.20
2023-03-08T02:08:42.306Z,2.07
2023-03-08T02:11:10.688Z,2.63
2023-03-08T02:13:39.786Z,3.83
2023-03-08T02:16:11.208Z,2.80
2023-03-08T02:18:38.924Z,3.20
2023-03-08T02:21:07.980Z,3.13
2023-03-08T02:23:36.877Z,2.53
2023-03-08T02:26:06.155Z,2.43
2023-03-08T02:28:34.446Z,5.70
2023-03-08T02:31:02.343Z,2.27
2023-03-08T02:33:30.525Z,5.13
2023-03-08T02:35:58.128Z,3.53
2023-03-08T02:38:25.994Z,4.70
2023-03-08T02:40:54.965Z,5.73
2023-03-08T02:43:22.626Z,4.63
2023-03-08T02:45:50.451Z,3.10
2023-03-08T02:48:18.672Z,3.27
2023-03-08T02:50:46.263Z,2.93
2023-03-08T02:53:13.977Z,3.33
2023-03-08T02:55:41.526Z,3.93
2023-03-08T02:58:11.730Z,5.33
2023-03-08T03:00:40.087Z,5.13
2023-03-08T03:03:07.612Z,4.20
2023-03-08T03:05:35.234Z,6.00
2023-03-08T03:08:02.847Z,3.17
2023-03-08T03:10:30.642Z,4.50
2023-03-08T03:12:58.433Z,3.60
2023-03-08T03:15:27.353Z,3.20
2023-03-08T03:17:55.935Z,3.27
2023-03-08T03:20:23.529Z,3.47
2023-03-08T03:22:51.176Z,4.50
2023-03-08T03:25:18.752Z,3.63
2023-03-08T03:27:46.353Z,4.33
2023-03-08T03:30:14.407Z,4.17
2023-03-08T03:32:43.441Z,3.23
2023-03-08T03:35:11.413Z,2.43
2023-03-08T03:37:39.007Z,4.57
2023-03-08T03:40:07.734Z,2.90
2023-03-08T03:42:35.418Z,3.83
2023-03-08T03:45:03.458Z,2.80
2023-03-08T03:47:31.180Z,5.17
2023-03-08T03:50:00.140Z,3.13
2023-03-08T03:52:27.900Z,4.43
2023-03-08T03:54:56.683Z,3.30
2023-03-08T03:57:24.311Z,3.27
2023-03-08T03:59:51.910Z,3.13
2023-03-08T04:02:19.529Z,4.97
2023-03-08T04:04:50.354Z,3.40
2023-03-08T04:07:19.338Z,4.33
2023-03-08T04:09:47.580Z,3.40
2023-03-08T04:12:15.353Z,4.60
2023-03-08T04:14:43.101Z,4.33
2023-03-08T04:17:11.638Z,4.63
2023-03-08T04:19:39.342Z,5.07
2023-03-08T04:22:06.975Z,5.30
2023-03-08T04:24:36.112Z,6.10
2023-03-08T04:27:03.819Z,7.20
2023-03-08T04:29:31.477Z,7.23
2023-03-08T04:32:00.290Z,5.53
2023-03-08T04:34:28.383Z,5.77
2023-03-08T04:36:56.132Z,8.90
2023-03-08T04:39:23.819Z,8.03
2023-03-08T04:41:52.742Z,8.37
2023-03-08T04:44:20.366Z,7.70
2023-03-08T04:46:48.054Z,6.90
2023-03-08T04:49:15.653Z,9.20
2023-03-08T04:51:43.292Z,8.07
2023-03-08T04:54:10.988Z,6.97
2023-03-08T04:56:38.557Z,9.00
2023-03-08T04:59:07.669Z,7.10
2023-03-08T05:01:35.263Z,7.13
2023-03-08T05:04:02.871Z,7.10
2023-03-08T05:06:30.516Z,11.30
2023-03-08T05:08:58.158Z,6.90
2023-03-08T05:11:27.711Z,7.20
2023-03-08T05:13:56.007Z,7.03
2023-03-08T05:16:26.367Z,9.30
2023-03-08T05:18:54.320Z,6.70
2023-03-08T05:21:23.580Z,6.07
2023-03-08T05:23:51.197Z,9.70
2023-03-08T05:26:19.713Z,7.90
2023-03-08T05:28:47.344Z,8.40
2023-03-08T05:31:17.329Z,10.20
2023-03-08T05:33:49.871Z,9.53
2023-03-08T05:36:19.381Z,20.03
2023-03-08T05:38:48.045Z,11.43
2023-03-08T05:41:17.283Z,17.00
2023-03-08T05:43:45.231Z,9.50
2023-03-08T05:46:15.104Z,11.93
2023-03-08T05:48:42.947Z,8.90
2023-03-08T05:51:13.579Z,10.50
2023-03-08T05:53:41.529Z,7.67
2023-03-08T05:56:10.729Z,12.80
2023-03-08T05:58:38.611Z,9.43
2023-03-08T06:01:13.887Z,9.30
2023-03-08T06:03:41.837Z,10.23
2023-03-08T06:06:11.917Z,12.93
2023-03-08T06:08:41.573Z,14.37
2023-03-08T06:11:10.219Z,9.83
2023-03-08T06:13:38.511Z,11.80
2023-03-08T06:16:07.197Z,13.90
2023-03-08T06:18:37.121Z,13.13
2023-03-08T06:21:06.751Z,12.73
2023-03-08T06:23:35.970Z,13.73
2023-03-08T06:26:07.254Z,13.73
2023-03-08T06:28:35.445Z,13.77
2023-03-08T06:31:03.335Z,13.83
2023-03-08T06:33:33.761Z,13.47
2023-03-08T06:36:03.634Z,12.47
2023-03-08T06:38:33.519Z,13.90
2023-03-08T06:41:02.197Z,13.60
2023-03-08T06:43:31.574Z,14.27
2023-03-08T06:45:59.700Z,12.40
2023-03-08T06:48:27.421Z,10.40
2023-03-08T06:50:55.009Z,10.43
2023-03-08T06:53:22.940Z,11.40
2023-03-08T06:55:50.500Z,11.57
2023-03-08T06:58:18.032Z,12.10
2023-03-08T07:00:47.674Z,13.73
2023-03-08T07:03:15.717Z,10.73
2023-03-08T07:05:43.563Z,11.20
2023-03-08T07:08:11.362Z,14.27
2023-03-08T07:10:39.030Z,11.30
2023-03-08T07:13:06.672Z,10.43
2023-03-08T07:15:34.496Z,15.07
2023-03-08T07:18:03.434Z,11.47
2023-03-08T07:20:31.287Z,10.67
2023-03-08T07:23:01.888Z,11.30
2023-03-08T07:25:29.842Z,12.93
2023-03-08T07:28:00.057Z,16.50
2023-03-08T07:30:28.566Z,17.10
2023-03-08T07:32:56.268Z,12.13
2023-03-08T07:35:25.169Z,13.20
2023-03-08T07:37:53.381Z,10.40
2023-03-08T07:40:21.091Z,14.47
2023-03-08T07:42:48.956Z,12.37
2023-03-08T07:45:16.707Z,10.33
2023-03-08T07:47:44.284Z,11.57
2023-03-08T07:50:12.462Z,14.50
2023-03-08T07:52:45.481Z,15.83
2023-03-08T07:55:13.409Z,10.43
2023-03-08T07:57:41.197Z,12.00
2023-03-08T08:00:10.051Z,14.40
2023-03-08T08:02:38.132Z,13.83
2023-03-08T08:05:06.862Z,9.20
2023-03-08T08:07:34.513Z,10.20
2023-03-08T08:10:03.845Z,13.60
2023-03-08T08:12:31.462Z,16.70
2023-03-08T08:15:00.089Z,12.03
2023-03-08T08:17:27.830Z,17.03
2023-03-08T08:19:55.417Z,14.43
2023-03-08T08:22:23.117Z,10.90
2023-03-08T08:24:50.765Z,13.47
2023-03-08T08:27:19.884Z,10.40
2023-03-08T08:29:49.488Z,11.40
2023-03-08T08:32:17.410Z,12.30
2023-03-08T08:34:45.708Z,14.23
2023-03-08T08:37:15.023Z,12.20
2023-03-08T08:39:42.528Z,13.63
2023-03-08T08:42:10.078Z,11.40
2023-03-08T08:44:39.219Z,11.60
2023-03-08T08:47:06.837Z,9.67
2023-03-08T08:49:34.424Z,13.67
2023-03-08T08:52:02.087Z,11.33
2023-03-08T08:54:30.004Z,9.30
2023-03-08T08:56:57.562Z,14.73
2023-03-08T08:59:25.468Z,17.27
2023-03-08T09:01:54.376Z,11.47
2023-03-08T09:04:22.094Z,12.10
2023-03-08T09:06:49.806Z,10.37
2023-03-08T09:09:19.182Z,8.87
2023-03-08T09:11:54.685Z,11.40
2023-03-08T09:14:23.557Z,13.97
2023-03-08T09:16:52.578Z,10.90
2023-03-08T09:19:21.809Z,16.63
2023-03-08T09:21:49.627Z,13.00
2023-03-08T09:24:17.582Z,9.97
2023-03-08T09:26:47.322Z,10.30
2023-03-08T09:29:15.080Z,11.63
2023-03-08T09:31:47.297Z,12.70
2023-03-08T09:34:15.510Z,13.67
2023-03-08T09:36:45.517Z,10.77
2023-03-08T09:39:14.118Z,13.70
2023-03-08T09:41:51.025Z,10.80
2023-03-08T09:44:43.886Z,14.20
2023-03-08T09:47:19.888Z,16.53
2023-03-08T09:49:52.002Z,7.90
2023-03-08T09:52:33.680Z,11.27
2023-03-08T09:55:04.580Z,9.90
2023-03-08T09:57:39.192Z,10.60
2023-03-08T10:00:15.071Z,12.20
2023-03-08T10:02:54.296Z,8.13
2023-03-08T10:05:25.671Z,10.47
2023-03-08T10:08:02.484Z,8.70
2023-03-08T10:10:40.371Z,8.27
2023-03-08T10:13:33.304Z,11.20
2023-03-08T10:16:16.329Z,8.70
2023-03-08T10:18:49.614Z,9.00
2023-03-08T10:21:19.553Z,12.70
2023-03-08T10:23:53.769Z,11.03
2023-03-08T10:26:21.325Z,12.03
2023-03-08T10:28:50.031Z,10.87
2023-03-08T10:31:22.654Z,16.17
2023-03-08T10:33:54.393Z,10.67
2023-03-08T10:36:24.093Z,9.30
2023-03-08T10:39:04.849Z,13.70
2023-03-08T10:41:39.664Z,13.53
2023-03-08T10:44:07.354Z,10.47
2023-03-08T10:46:35.188Z,13.07
2023-03-08T10:49:10.607Z,11.67
2023-03-08T10:51:38.304Z,12.50
2023-03-08T10:54:12.338Z,11.67
2023-03-08T10:56:44.807Z,12.83
2023-03-08T10:59:19.643Z,11.60
2023-03-08T11:01:53.219Z,15.20
2023-03-08T11:04:22.470Z,12.20
2023-03-08T11:06:50.394Z,10.70
2023-03-08T11:09:25.797Z,13.57
2023-03-08T11:11:53.916Z,13.20
2023-03-08T11:14:21.791Z,15.00
2023-03-08T11:17:03.584Z,14.00
2023-03-08T11:19:38.028Z,12.50
2023-03-08T11:22:17.923Z,14.97
2023-03-08T11:24:59.870Z,10.60
2023-03-08T11:27:39.826Z,10.47
2023-03-08T11:30:19.935Z,14.67
2023-03-08T11:33:13.539Z,14.10
2023-03-08T11:35:50.516Z,12.40
2023-03-08T11:38:21.110Z,8.27
2023-03-08T11:40:59.731Z,15.83
2023-03-08T11:43:41.958Z,13.50
2023-03-08T11:46:18.512Z,15.60
2023-03-08T11:49:11.319Z,8.93
2023-03-08T11:51:46.251Z,10.17
2023-03-08T11:54:19.236Z,10.03
2023-03-08T11:56:55.869Z,7.50
2023-03-08T11:59:33.928Z,13.07
2023-03-08T12:02:10.809Z,14.70
2023-03-08T12:04:44.627Z,7.50
2023-03-08T12:07:20.967Z,8.03
2023-03-08T12:09:56.701Z,9.60
2023-03-08T12:12:31.871Z,10.00
2023-03-08T12:15:07.686Z,9.30
2023-03-08T12:17:41.594Z,8.70
2023-03-08T12:20:14.962Z,9.03
2023-03-08T12:22:48.134Z,10.50
2023-03-08T12:25:25.175Z,8.50
2023-03-08T12:28:01.607Z,19.60
2023-03-08T12:30:42.615Z,9.60
2023-03-08T12:33:13.952Z,9.10
2023-03-08T12:35:52.705Z,9.37
2023-03-08T12:38:34.178Z,9.40
2023-03-08T12:41:04.972Z,7.40
2023-03-08T12:43:36.017Z,6.90
2023-03-08T12:46:07.544Z,6.20
2023-03-08T12:48:38.983Z,7.60
2023-03-08T12:51:18.688Z,11.80
2023-03-08T12:53:57.957Z,8.43
2023-03-08T12:56:32.937Z,9.33
2023-03-08T12:59:03.527Z,8.20
2023-03-08T13:01:38.377Z,6.97
2023-03-08T13:04:39.076Z,6.70
2023-03-08T13:07:23.562Z,6.77
2023-03-08T13:09:57.498Z,7.43
2023-03-08T13:15:24.878Z,9.10
2023-03-08T13:18:02.036Z,8.03
2023-03-08T13:20:50.845Z,9.73
2023-03-08T13:23:27.142Z,7.20
2023-03-08T13:26:06.292Z,6.37
2023-03-08T13:28:46.558Z,6.53
2023-03-08T13:31:20.563Z,7.50
2023-03-08T13:33:50.625Z,4.30
2023-03-08T13:36:23.780Z,5.90
2023-03-08T13:38:59.899Z,6.17
2023-03-08T13:41:38.250Z,5.00
2023-03-08T13:44:08.088Z,4.70
2023-03-08T13:46:42.470Z,4.80
2023-03-08T13:49:16.013Z,5.80
2023-03-08T13:51:45.219Z,6.13
2023-03-08T13:54:17.576Z,8.83
2023-03-08T13:56:45.195Z,5.17
2023-03-08T13:59:19.728Z,7.07
2023-03-08T14:01:50.293Z,6.40
2023-03-08T14:04:30.303Z,5.63
2023-03-08T14:06:59.790Z,7.70
2023-03-08T14:09:28.678Z,4.40
2023-03-08T14:12:00.560Z,5.37
2023-03-08T14:14:31.647Z,4.40
2023-03-08T14:17:01.405Z,7.30
2023-03-08T14:19:32.701Z,10.00
2023-03-08T14:22:03.371Z,7.33
2023-03-08T14:24:33.770Z,6.23
2023-03-08T14:27:02.996Z,5.20
2023-03-08T14:29:31.843Z,7.43
2023-03-08T14:32:09.140Z,7.50
2023-03-08T14:34:39.410Z,6.90
2023-03-08T14:37:15.284Z,7.43
2023-03-08T14:39:45.115Z,7.33
2023-03-08T14:42:21.621Z,6.90
2023-03-08T14:44:54.609Z,11.83
2023-03-08T14:47:26.500Z,6.47
2023-03-08T14:49:58.097Z,7.77
2023-03-08T14:52:28.032Z,6.83
2023-03-08T14:54:55.628Z,6.93
2023-03-08T14:57:25.486Z,8.13
2023-03-08T14:59:54.717Z,8.87
2023-03-08T15:02:22.177Z,13.40
2023-03-08T15:04:51.081Z,8.77
2023-03-08T15:07:22.241Z,11.50
2023-03-08T15:09:52.042Z,12.30
2023-03-08T15:12:19.658Z,17.67
2023-03-08T15:14:47.244Z,8.30
2023-03-08T15:17:14.788Z,13.23
2023-03-08T15:19:42.353Z,11.87
2023-03-08T15:22:14.475Z,13.80
2023-03-08T15:24:42.307Z,14.60
2023-03-08T15:27:14.413Z,20.00
2023-03-08T15:29:42.021Z,14.53
2023-03-08T15:32:09.676Z,22.13
2023-03-08T15:34:39.469Z,18.73
2023-03-08T15:37:07.958Z,19.77
2023-03-08T15:39:36.969Z,18.57
2023-03-08T15:42:04.756Z,10.00
2023-03-08T15:44:32.431Z,13.60
2023-03-08T15:47:01.647Z,10.47
2023-03-08T15:49:29.355Z,15.10
2023-03-08T15:51:56.975Z,11.80
2023-03-08T15:54:26.883Z,9.60
2023-03-08T15:56:55.814Z,10.77
2023-03-08T15:59:23.442Z,14.90
2023-03-08T16:01:51.081Z,10.20
2023-03-08T16:04:18.591Z,11.53
2023-03-08T16:06:46.277Z,11.97
2023-03-08T16:09:14.021Z,13.33
2023-03-08T16:11:41.599Z,11.27
2023-03-08T16:14:10.756Z,13.40
2023-03-08T16:16:45.325Z,12.27
2023-03-08T16:19:13.844Z,13.10
2023-03-08T16:21:41.637Z,18.10
2023-03-08T16:24:09.601Z,12.07
2023-03-08T16:26:37.242Z,12.33
2023-03-08T16:29:04.991Z,13.23
2023-03-08T16:31:34.005Z,14.03
2023-03-08T16:34:03.292Z,13.37
2023-03-08T16:36:30.823Z,14.27
2023-03-08T16:38:58.415Z,15.87
2023-03-08T16:41:37.812Z,20.60
2023-03-08T16:44:06.766Z,15.63
2023-03-08T16:46:36.578Z,24.67
2023-03-08T16:49:04.355Z,14.77
2023-03-08T16:51:37.336Z,13.57
2023-03-08T16:54:06.327Z,15.50
2023-03-08T16:56:33.961Z,19.63
2023-03-08T16:59:02.377Z,18.17
2023-03-08T17:01:31.294Z,21.47
2023-03-08T17:04:03.163Z,21.87
2023-03-08T17:06:33.136Z,18.00
2023-03-08T17:09:00.901Z,17.93
2023-03-08T17:11:31.054Z,16.60
2023-03-08T17:14:01.816Z,16.67
2023-03-08T17:16:31.376Z,19.60
2023-03-08T17:19:01.194Z,17.60
2023-03-08T17:21:31.202Z,14.17
2023-03-08T17:24:00.066Z,18.37
2023-03-08T17:26:27.807Z,19.23
2023-03-08T17:28:56.944Z,17.43
2023-03-08T17:31:25.051Z,15.47
2023-03-08T17:33:53.358Z,14.20
2023-03-08T17:36:24.912Z,17.67
2023-03-08T17:38:53.814Z,15.83
2023-03-08T17:41:22.524Z,18.50
2023-03-08T17:43:50.697Z,17.77
2023-03-08T17:46:21.252Z,16.20
2023-03-08T17:48:50.410Z,16.23
2023-03-08T17:51:20.336Z,15.60
2023-03-08T17:53:49.967Z,12.20
2023-03-08T17:56:19.918Z,10.30
2023-03-08T17:58:48.218Z,7.60
2023-03-08T18:01:17.759Z,5.13
2023-03-08T18:03:46.181Z,4.73
2023-03-08T18:06:19.671Z,10.50
2023-03-08T18:08:48.784Z,21.83
2023-03-08T18:11:16.394Z,13.27
2023-03-08T18:13:44.262Z,8.47
2023-03-08T18:16:12.287Z,9.17
2023-03-08T18:18:39.928Z,10.80
2023-03-08T18:21:13.902Z,8.90
2023-03-08T18:23:43.148Z,9.00
2023-03-08T18:26:13.119Z,6.50
2023-03-08T18:28:41.198Z,7.80
2023-03-08T18:31:10.374Z,7.13
2023-03-08T18:33:38.096Z,11.50
2023-03-08T18:36:06.283Z,8.43
2023-03-08T18:38:34.150Z,8.07
2023-03-08T18:41:01.886Z,16.27
2023-03-08T18:43:38.246Z,8.30
2023-03-08T18:46:15.064Z,8.67
2023-03-08T18:48:53.302Z,10.37
2023-03-08T18:51:36.098Z,9.67
2023-03-08T18:54:10.881Z,13.63
2023-03-08T18:56:39.293Z,11.90
2023-03-08T18:59:09.406Z,10.13
2023-03-08T19:01:37.329Z,10.17
2023-03-08T19:04:07.214Z,9.73
2023-03-08T19:06:56.030Z,13.97
2023-03-08T19:09:24.305Z,8.03
2023-03-08T19:11:51.870Z,11.57
2023-03-08T19:14:20.815Z,9.50
2023-03-08T19:16:48.584Z,12.57
2023-03-08T19:19:18.066Z,17.50
2023-03-08T19:21:48.544Z,12.43
2023-03-08T19:24:17.786Z,11.97
2023-03-08T19:26:47.293Z,17.03
2023-03-08T19:29:17.760Z,13.80
2023-03-08T19:31:50.094Z,19.43
2023-03-08T19:34:17.915Z,12.13
2023-03-08T19:36:47.161Z,13.03
2023-03-08T19:39:16.795Z,15.00
2023-03-08T19:41:45.203Z,13.83
2023-03-08T19:44:12.903Z,13.30
2023-03-08T19:46:40.829Z,12.63
2023-03-08T19:49:13.073Z,18.70
2023-03-08T19:51:40.798Z,12.67
2023-03-08T19:54:08.830Z,13.93
2023-03-08T19:56:37.242Z,14.97
2023-03-08T19:59:05.492Z,14.33
2023-03-08T20:01:33.270Z,11.90
2023-03-08T20:04:00.768Z,13.13
2023-03-08T20:06:32.100Z,13.77
2023-03-08T20:09:00.360Z,16.03
2023-03-08T20:11:28.409Z,13.00
2023-03-08T20:13:56.378Z,14.53
2023-03-08T20:16:24.664Z,15.07
2023-03-08T20:18:54.147Z,16.87
2023-03-08T20:21:23.998Z,16.60
2023-03-08T20:23:55.424Z,14.23
2023-03-08T20:26:23.174Z,15.50
2023-03-08T20:28:50.779Z,14.83
2023-03-08T20:31:18.863Z,16.73
2023-03-08T20:33:47.024Z,19.27
2023-03-08T20:36:14.730Z,13.17
2023-03-08T20:38:42.354Z,14.67
2023-03-08T20:41:18.070Z,18.23
2023-03-08T20:43:47.602Z,15.67
2023-03-08T20:46:17.603Z,18.70
2023-03-08T20:48:46.468Z,18.73
2023-03-08T20:51:15.686Z,14.30
2023-03-08T20:53:43.543Z,15.63
2023-03-08T20:56:14.315Z,18.20
2023-03-08T20:58:42.859Z,19.53
2023-03-08T21:01:11.524Z,17.97
2023-03-08T21:03:40.671Z,19.57
2023-03-08T21:06:12.702Z,19.57
2023-03-08T21:08:40.394Z,17.30
2023-03-08T21:11:08.211Z,19.63
2023-03-08T21:13:38.001Z,19.00
2023-03-08T21:16:08.067Z,18.20
2023-03-08T21:18:35.855Z,17.27
2023-03-08T21:21:03.601Z,16.23
2023-03-08T21:23:31.366Z,18.73
2023-03-08T21:26:00.361Z,14.83
2023-03-08T21:28:28.581Z,16.33
2023-03-08T21:30:57.732Z,17.33
2023-03-08T21:33:25.638Z,19.33
2023-03-08T21:35:53.344Z,16.97
2023-03-08T21:38:22.232Z,16.43
2023-03-08T21:40:50.746Z,18.30
2023-03-08T21:43:18.418Z,17.43
2023-03-08T21:45:45.970Z,20.67
2023-03-08T21:48:15.071Z,17.27
2023-03-08T21:50:42.706Z,15.63
2023-03-08T21:53:10.289Z,20.50
2023-03-08T21:55:39.871Z,17.43
2023-03-08T21:58:07.539Z,17.50
2023-03-08T22:00:35.449Z,16.63
2023-03-08T22:03:03.077Z,16.90
2023-03-08T22:05:32.789Z,17.90
2023-03-08T22:08:00.346Z,21.23
2023-03-08T22:10:27.989Z,27.03
2023-03-08T22:12:55.551Z,16.60
2023-03-08T22:15:23.284Z,18.70
2023-03-08T22:17:52.496Z,23.23
2023-03-08T22:20:20.216Z,16.93
2023-03-08T22:22:49.122Z,20.50
2023-03-08T22:25:16.827Z,16.70
2023-03-08T22:27:44.432Z,20.90
2023-03-08T22:30:13.093Z,20.20
2023-03-08T22:32:41.930Z,22.20
2023-03-08T22:35:10.976Z,17.17
2023-03-08T22:37:38.882Z,19.60
2023-03-08T22:40:11.142Z,21.57
2023-03-08T22:42:38.752Z,17.53
2023-03-08T22:45:07.613Z,17.80
2023-03-08T22:47:35.231Z,19.73
2023-03-08T22:50:03.839Z,21.00
2023-03-08T22:52:31.538Z,20.97
2023-03-08T22:54:59.261Z,14.77
2023-03-08T22:57:28.305Z,21.57
2023-03-08T22:59:56.143Z,16.30
2023-03-08T23:02:24.152Z,15.77
2023-03-08T23:04:52.186Z,16.50
2023-03-08T23:07:19.811Z,21.20
2023-03-08T23:09:47.433Z,17.77
2023-03-08T23:12:15.332Z,15.30
2023-03-08T23:14:45.367Z,16.20
2023-03-08T23:17:13.096Z,14.90
2023-03-08T23:19:45.004Z,14.67
2023-03-08T23:22:13.101Z,18.60
2023-03-08T23:24:40.677Z,19.33
2023-03-08T23:27:08.667Z,18.47
2023-03-08T23:29:37.398Z,14.63
2023-03-08T23:32:07.204Z,12.37
2023-03-08T23:34:34.890Z,10.53
2023-03-08T23:37:04.116Z,16.37
2023-03-08T23:39:31.727Z,9.97
2023-03-08T23:41:59.341Z,10.17
2023-03-08T23:44:27.645Z,8.87
2023-03-08T23:46:55.336Z,7.63
2023-03-08T23:49:24.238Z,7.67
2023-03-08T23:51:51.822Z,7.63
2023-03-08T23:54:19.451Z,8.83
2023-03-08T23:56:47.134Z,9.50
2023-03-08T23:59:18.679Z,8.73
